sensor_id;sensor_type;location;lat;lon;timestamp;P1;durP1;ratioP1;P2;durP2;ratioP2
21235;SDS011;10775;42.678;26.324;2023-03-05T00:02:03;9.77;;;5.97;;
21235;SDS011;10775;42.678;26.324;2023-03-05T00:04:28;11.02;;;5.75;;
21235;SDS011;10775;42.678;26.324;2023-03-05T00:06:53;10.45;;;5.50;;
21235;SDS011;10775;42.678;26.324;2023-03-05T00:09:19;9.60;;;5.32;;
21235;SDS011;10775;42.678;26.324;2023-03-05T00:11:45;11.00;;;5.65;;
21235;SDS011;10775;42.678;26.324;2023-03-05T00:14:10;11.48;;;6.38;;
21235;SDS011;10775;42.678;26.324;2023-03-05T00:16:36;8.02;;;4.82;;
21235;SDS011;10775;42.678;26.324;2023-03-05T00:19:02;9.65;;;5.57;;
21235;SDS011;10775;42.678;26.324;2023-03-05T00:23:53;10.65;;;5.28;;
21235;SDS011;10775;42.678;26.324;2023-03-05T00:26:20;10.70;;;6.13;;
21235;SDS011;10775;42.678;26.324;2023-03-05T00:28:48;13.45;;;6.28;;
21235;SDS011;10775;42.678;26.324;2023-03-05T00:31:19;8.65;;;4.85;;
21235;SDS011;10775;42.678;26.324;2023-03-05T00:33:53;9.75;;;4.57;;
21235;SDS011;10775;42.678;26.324;2023-03-05T00:36:20;9.02;;;4.65;;
21235;SDS011;10775;42.678;26.324;2023-03-05T00:38:46;8.68;;;5.10;;
21235;SDS011;10775;42.678;26.324;2023-03-05T00:41:12;10.38;;;4.78;;
21235;SDS011;10775;42.678;26.324;2023-03-05T00:43:38;8.90;;;4.88;;
21235;SDS011;10775;42.678;26.324;2023-03-05T00:46:03;10.38;;;5.60;;
21235;SDS011;10775;42.678;26.324;2023-03-05T00:48:29;10.05;;;5.65;;
21235;SDS011;10775;42.678;26.324;2023-03-05T00:50:54;10.13;;;5.70;;
21235;SDS011;10775;42.678;26.324;2023-03-05T00:53:20;10.70;;;5.85;;
21235;SDS011;10775;42.678;26.324;2023-03-05T00:55:46;10.65;;;6.05;;
21235;SDS011;10775;42.678;26.324;2023-03-05T00:58:11;9.93;;;5.75;;
21235;SDS011;10775;42.678;26.324;2023-03-05T01:00:37;9.13;;;5.05;;
21235;SDS011;10775;42.678;26.324;2023-03-05T01:03:02;10.10;;;5.50;;
21235;SDS011;10775;42.678;26.324;2023-03-05T01:05:28;12.40;;;6.25;;
21235;SDS011;10775;42.678;26.324;2023-03-05T01:07:54;9.50;;;5.35;;
21235;SDS011;10775;42.678;26.324;2023-03-05T01:10:22;11.57;;;6.18;;
21235;SDS011;10775;42.678;26.324;2023-03-05T01:12:50;10.15;;;5.55;;
21235;SDS011;10775;42.678;26.324;2023-03-05T01:15:17;12.02;;;6.13;;
21235;SDS011;10775;42.678;26.324;2023-03-05T01:17:42;9.88;;;5.72;;
21235;SDS011;10775;42.678;26.324;2023-03-05T01:20:08;12.27;;;5.50;;
21235;SDS011;10775;42.678;26.324;2023-03-05T01:22:36;8.85;;;5.38;;
21235;SDS011;10775;42.678;26.324;2023-03-05T01:25:02;8.63;;;5.30;;
21235;SDS011;10775;42.678;26.324;2023-03-05T01:27:28;9.50;;;5.22;;
21235;SDS011;10775;42.678;26.324;2023-03-05T01:29:53;12.35;;;6.63;;
21235;SDS011;10775;42.678;26.324;2023-03-05T01:32:19;10.77;;;6.00;;
21235;SDS011;10775;42.678;26.324;2023-03-05T01:34:44;10.50;;;5.30;;
21235;SDS011;10775;42.678;26.324;2023-03-05T01:37:10;9.52;;;6.05;;
21235;SDS011;10775;42.678;26.324;2023-03-05T01:39:35;10.32;;;5.72;;
21235;SDS011;10775;42.678;26.324;2023-03-05T01:42:01;10.38;;;5.70;;
21235;SDS011;10775;42.678;26.324;2023-03-05T01:44:27;11.30;;;5.28;;
21235;SDS011;10775;42.678;26.324;2023-03-05T01:46:54;9.52;;;5.03;;
21235;SDS011;10775;42.678;26.324;2023-03-05T01:52:10;9.57;;;5.90;;
21235;SDS011;10775;42.678;26.324;2023-03-05T01:58:11;11.73;;;6.47;;
21235;SDS011;10775;42.678;26.324;2023-03-05T02:00:12;9.30;;;5.55;;
21235;SDS011;10775;42.678;26.324;2023-03-05T02:02:44;10.80;;;5.93;;
21235;SDS011;10775;42.678;26.324;2023-03-05T02:05:15;10.80;;;5.72;;
21235;SDS011;10775;42.678;26.324;2023-03-05T02:07:43;11.70;;;6.07;;
21235;SDS011;10775;42.678;26.324;2023-03-05T02:12:42;10.48;;;6.00;;
21235;SDS011;10775;42.678;26.324;2023-03-05T02:15:08;9.68;;;5.80;;
21235;SDS011;10775;42.678;26.324;2023-03-05T02:17:34;9.73;;;5.43;;
21235;SDS011;10775;42.678;26.324;2023-03-05T02:20:05;10.73;;;5.97;;
21235;SDS011;10775;42.678;26.324;2023-03-05T02:22:33;10.93;;;6.05;;
21235;SDS011;10775;42.678;26.324;2023-03-05T02:24:59;10.80;;;5.85;;
21235;SDS011;10775;42.678;26.324;2023-03-05T02:27:26;9.55;;;5.55;;
21235;SDS011;10775;42.678;26.324;2023-03-05T02:29:59;9.65;;;5.40;;
21235;SDS011;10775;42.678;26.324;2023-03-05T02:32:25;11.07;;;5.85;;
21235;SDS011;10775;42.678;26.324;2023-03-05T02:34:51;8.07;;;4.65;;
21235;SDS011;10775;42.678;26.324;2023-03-05T02:37:17;9.20;;;5.30;;
21235;SDS011;10775;42.678;26.324;2023-03-05T02:39:42;8.63;;;4.55;;
21235;SDS011;10775;42.678;26.324;2023-03-05T02:42:08;10.82;;;6.05;;
21235;SDS011;10775;42.678;26.324;2023-03-05T02:44:33;12.95;;;5.93;;
21235;SDS011;10775;42.678;26.324;2023-03-05T02:46:59;12.38;;;6.50;;
21235;SDS011;10775;42.678;26.324;2023-03-05T02:49:24;10.20;;;6.07;;
21235;SDS011;10775;42.678;26.324;2023-03-05T02:51:50;10.45;;;5.32;;
21235;SDS011;10775;42.678;26.324;2023-03-05T02:54:15;9.13;;;5.25;;
21235;SDS011;10775;42.678;26.324;2023-03-05T02:56:41;8.52;;;4.88;;
21235;SDS011;10775;42.678;26.324;2023-03-05T02:59:07;8.52;;;4.75;;
21235;SDS011;10775;42.678;26.324;2023-03-05T03:01:33;9.70;;;5.65;;
21235;SDS011;10775;42.678;26.324;2023-03-05T03:03:58;10.45;;;5.65;;
21235;SDS011;10775;42.678;26.324;2023-03-05T03:06:24;9.32;;;5.10;;
21235;SDS011;10775;42.678;26.324;2023-03-05T03:08:49;7.85;;;4.72;;
21235;SDS011;10775;42.678;26.324;2023-03-05T03:11:15;10.52;;;5.13;;
21235;SDS011;10775;42.678;26.324;2023-03-05T03:13:41;11.40;;;5.63;;
21235;SDS011;10775;42.678;26.324;2023-03-05T03:16:08;11.65;;;5.47;;
21235;SDS011;10775;42.678;26.324;2023-03-05T03:18:36;9.75;;;5.07;;
21235;SDS011;10775;42.678;26.324;2023-03-05T03:21:02;9.82;;;5.88;;
21235;SDS011;10775;42.678;26.324;2023-03-05T03:23:28;13.32;;;6.85;;
21235;SDS011;10775;42.678;26.324;2023-03-05T03:25:53;9.15;;;5.10;;
21235;SDS011;10775;42.678;26.324;2023-03-05T03:28:19;13.48;;;6.85;;
21235;SDS011;10775;42.678;26.324;2023-03-05T03:30:45;10.25;;;5.65;;
21235;SDS011;10775;42.678;26.324;2023-03-05T03:33:10;6.40;;;4.03;;
21235;SDS011;10775;42.678;26.324;2023-03-05T03:35:36;9.38;;;5.45;;
21235;SDS011;10775;42.678;26.324;2023-03-05T03:38:02;15.13;;;6.72;;
21235;SDS011;10775;42.678;26.324;2023-03-05T03:40:28;8.25;;;4.57;;
21235;SDS011;10775;42.678;26.324;2023-03-05T03:42:53;10.30;;;4.95;;
21235;SDS011;10775;42.678;26.324;2023-03-05T03:45:19;7.43;;;4.32;;
21235;SDS011;10775;42.678;26.324;2023-03-05T03:47:48;9.18;;;4.72;;
21235;SDS011;10775;42.678;26.324;2023-03-05T03:50:14;11.13;;;5.28;;
21235;SDS011;10775;42.678;26.324;2023-03-05T03:52:39;14.32;;;7.85;;
21235;SDS011;10775;42.678;26.324;2023-03-05T03:55:05;12.15;;;5.90;;
21235;SDS011;10775;42.678;26.324;2023-03-05T03:57:31;9.15;;;5.10;;
21235;SDS011;10775;42.678;26.324;2023-03-05T04:00:00;10.77;;;5.43;;
21235;SDS011;10775;42.678;26.324;2023-03-05T04:02:26;9.18;;;5.18;;
21235;SDS011;10775;42.678;26.324;2023-03-05T04:04:51;10.27;;;5.95;;
21235;SDS011;10775;42.678;26.324;2023-03-05T04:07:17;12.35;;;5.65;;
21235;SDS011;10775;42.678;26.324;2023-03-05T04:09:43;11.45;;;6.80;;
21235;SDS011;10775;42.678;26.324;2023-03-05T04:12:09;11.88;;;5.95;;
21235;SDS011;10775;42.678;26.324;2023-03-05T04:14:34;11.30;;;5.75;;
21235;SDS011;10775;42.678;26.324;2023-03-05T04:17:00;11.77;;;5.65;;
21235;SDS011;10775;42.678;26.324;2023-03-05T04:19:26;10.00;;;5.22;;
21235;SDS011;10775;42.678;26.324;2023-03-05T04:21:52;7.75;;;4.82;;
21235;SDS011;10775;42.678;26.324;2023-03-05T04:24:18;9.68;;;5.70;;
21235;SDS011;10775;42.678;26.324;2023-03-05T04:26:43;11.13;;;5.70;;
21235;SDS011;10775;42.678;26.324;2023-03-05T04:29:09;12.05;;;6.28;;
21235;SDS011;10775;42.678;26.324;2023-03-05T04:31:34;8.70;;;5.20;;
21235;SDS011;10775;42.678;26.324;2023-03-05T04:34:00;10.57;;;5.57;;
21235;SDS011;10775;42.678;26.324;2023-03-05T04:36:25;11.07;;;5.35;;
21235;SDS011;10775;42.678;26.324;2023-03-05T04:38:51;9.15;;;5.07;;
21235;SDS011;10775;42.678;26.324;2023-03-05T04:41:16;9.30;;;5.43;;
21235;SDS011;10775;42.678;26.324;2023-03-05T04:43:41;10.45;;;5.88;;
21235;SDS011;10775;42.678;26.324;2023-03-05T04:46:07;12.90;;;6.55;;
21235;SDS011;10775;42.678;26.324;2023-03-05T04:48:32;11.02;;;6.10;;
21235;SDS011;10775;42.678;26.324;2023-03-05T04:50:58;9.95;;;5.90;;
21235;SDS011;10775;42.678;26.324;2023-03-05T04:53:23;9.48;;;5.45;;
21235;SDS011;10775;42.678;26.324;2023-03-05T04:55:53;11.55;;;6.28;;
21235;SDS011;10775;42.678;26.324;2023-03-05T04:58:19;10.35;;;5.18;;
21235;SDS011;10775;42.678;26.324;2023-03-05T05:00:44;11.77;;;6.03;;
21235;SDS011;10775;42.678;26.324;2023-03-05T05:03:10;9.98;;;5.30;;
21235;SDS011;10775;42.678;26.324;2023-03-05T05:05:35;10.32;;;5.85;;
21235;SDS011;10775;42.678;26.324;2023-03-05T05:08:01;11.85;;;5.75;;
21235;SDS011;10775;42.678;26.324;2023-03-05T05:10:27;13.65;;;6.10;;
21235;SDS011;10775;42.678;26.324;2023-03-05T05:12:52;13.70;;;7.35;;
21235;SDS011;10775;42.678;26.324;2023-03-05T05:15:18;11.63;;;6.57;;
21235;SDS011;10775;42.678;26.324;2023-03-05T05:17:44;11.18;;;5.53;;
21235;SDS011;10775;42.678;26.324;2023-03-05T05:20:10;11.50;;;6.30;;
21235;SDS011;10775;42.678;26.324;2023-03-05T05:22:37;13.73;;;6.63;;
21235;SDS011;10775;42.678;26.324;2023-03-05T05:25:03;12.38;;;6.75;;
21235;SDS011;10775;42.678;26.324;2023-03-05T05:27:29;12.40;;;6.47;;
21235;SDS011;10775;42.678;26.324;2023-03-05T05:29:54;10.63;;;6.13;;
21235;SDS011;10775;42.678;26.324;2023-03-05T05:32:20;12.93;;;6.47;;
21235;SDS011;10775;42.678;26.324;2023-03-05T05:34:47;11.85;;;6.10;;
21235;SDS011;10775;42.678;26.324;2023-03-05T05:37:17;14.18;;;7.50;;
21235;SDS011;10775;42.678;26.324;2023-03-05T05:39:42;14.15;;;6.43;;
21235;SDS011;10775;42.678;26.324;2023-03-05T05:42:14;13.60;;;6.53;;
21235;SDS011;10775;42.678;26.324;2023-03-05T05:44:43;11.68;;;6.80;;
21235;SDS011;10775;42.678;26.324;2023-03-05T05:47:09;14.80;;;7.32;;
21235;SDS011;10775;42.678;26.324;2023-03-05T05:49:34;13.60;;;8.43;;
21235;SDS011;10775;42.678;26.324;2023-03-05T05:52:00;14.40;;;7.32;;
21235;SDS011;10775;42.678;26.324;2023-03-05T05:54:25;24.92;;;11.90;;
21235;SDS011;10775;42.678;26.324;2023-03-05T05:56:51;16.45;;;8.93;;
21235;SDS011;10775;42.678;26.324;2023-03-05T05:59:16;15.10;;;8.45;;
21235;SDS011;10775;42.678;26.324;2023-03-05T06:01:42;17.10;;;9.45;;
21235;SDS011;10775;42.678;26.324;2023-03-05T06:04:07;17.02;;;8.85;;
21235;SDS011;10775;42.678;26.324;2023-03-05T06:06:33;14.25;;;8.13;;
21235;SDS011;10775;42.678;26.324;2023-03-05T06:09:02;14.43;;;8.30;;
21235;SDS011;10775;42.678;26.324;2023-03-05T06:11:28;13.90;;;7.43;;
21235;SDS011;10775;42.678;26.324;2023-03-05T06:13:54;13.70;;;7.13;;
21235;SDS011;10775;42.678;26.324;2023-03-05T06:16:21;14.98;;;8.00;;
21235;SDS011;10775;42.678;26.324;2023-03-05T06:18:48;14.98;;;6.47;;
21235;SDS011;10775;42.678;26.324;2023-03-05T06:21:15;14.60;;;8.20;;
21235;SDS011;10775;42.678;26.324;2023-03-05T06:23:42;14.07;;;7.80;;
21235;SDS011;10775;42.678;26.324;2023-03-05T06:26:09;14.70;;;8.02;;
21235;SDS011;10775;42.678;26.324;2023-03-05T06:28:37;12.65;;;7.63;;
21235;SDS011;10775;42.678;26.324;2023-03-05T06:31:06;12.65;;;7.00;;
21235;SDS011;10775;42.678;26.324;2023-03-05T06:33:36;13.45;;;6.95;;
21235;SDS011;10775;42.678;26.324;2023-03-05T06:36:06;13.35;;;7.10;;
21235;SDS011;10775;42.678;26.324;2023-03-05T06:38:33;14.32;;;7.90;;
21235;SDS011;10775;42.678;26.324;2023-03-05T06:41:00;17.38;;;8.38;;
21235;SDS011;10775;42.678;26.324;2023-03-05T06:43:26;15.05;;;7.80;;
21235;SDS011;10775;42.678;26.324;2023-03-05T06:46:02;13.98;;;7.20;;
21235;SDS011;10775;42.678;26.324;2023-03-05T06:48:29;15.55;;;7.88;;
21235;SDS011;10775;42.678;26.324;2023-03-05T06:50:55;17.42;;;8.30;;
21235;SDS011;10775;42.678;26.324;2023-03-05T06:53:20;14.13;;;7.05;;
21235;SDS011;10775;42.678;26.324;2023-03-05T06:55:48;15.40;;;8.48;;
21235;SDS011;10775;42.678;26.324;2023-03-05T06:58:13;13.43;;;6.88;;
21235;SDS011;10775;42.678;26.324;2023-03-05T07:00:39;16.35;;;8.93;;
21235;SDS011;10775;42.678;26.324;2023-03-05T07:03:04;16.00;;;7.25;;
21235;SDS011;10775;42.678;26.324;2023-03-05T07:05:29;15.23;;;7.88;;
21235;SDS011;10775;42.678;26.324;2023-03-05T07:07:55;28.85;;;13.65;;
21235;SDS011;10775;42.678;26.324;2023-03-05T07:10:20;12.80;;;6.03;;
21235;SDS011;10775;42.678;26.324;2023-03-05T07:12:46;21.55;;;10.68;;
21235;SDS011;10775;42.678;26.324;2023-03-05T07:15:11;27.88;;;11.88;;
21235;SDS011;10775;42.678;26.324;2023-03-05T07:17:37;25.73;;;9.98;;
21235;SDS011;10775;42.678;26.324;2023-03-05T07:20:02;13.35;;;7.15;;
21235;SDS011;10775;42.678;26.324;2023-03-05T07:22:28;19.10;;;8.05;;
21235;SDS011;10775;42.678;26.324;2023-03-05T07:24:54;22.27;;;10.05;;
21235;SDS011;10775;42.678;26.324;2023-03-05T07:27:19;12.00;;;6.25;;
21235;SDS011;10775;42.678;26.324;2023-03-05T07:29:47;20.40;;;10.07;;
21235;SDS011;10775;42.678;26.324;2023-03-05T07:32:12;21.95;;;10.57;;
21235;SDS011;10775;42.678;26.324;2023-03-05T07:34:38;31.30;;;15.98;;
21235;SDS011;10775;42.678;26.324;2023-03-05T07:37:03;28.25;;;13.75;;
21235;SDS011;10775;42.678;26.324;2023-03-05T07:39:29;22.10;;;11.88;;
21235;SDS011;10775;42.678;26.324;2023-03-05T07:41:54;25.95;;;12.48;;
21235;SDS011;10775;42.678;26.324;2023-03-05T07:44:20;50.88;;;24.35;;
21235;SDS011;10775;42.678;26.324;2023-03-05T07:46:45;37.00;;;18.42;;
21235;SDS011;10775;42.678;26.324;2023-03-05T07:49:11;35.67;;;16.60;;
21235;SDS011;10775;42.678;26.324;2023-03-05T07:51:36;31.88;;;13.20;;
21235;SDS011;10775;42.678;26.324;2023-03-05T07:54:02;33.88;;;14.80;;
21235;SDS011;10775;42.678;26.324;2023-03-05T07:56:31;19.50;;;9.45;;
21235;SDS011;10775;42.678;26.324;2023-03-05T07:59:10;23.40;;;11.55;;
21235;SDS011;10775;42.678;26.324;2023-03-05T08:01:36;22.13;;;7.93;;
21235;SDS011;10775;42.678;26.324;2023-03-05T08:04:02;27.23;;;13.02;;
21235;SDS011;10775;42.678;26.324;2023-03-05T08:06:28;21.08;;;10.15;;
21235;SDS011;10775;42.678;26.324;2023-03-05T08:08:53;24.50;;;13.00;;
21235;SDS011;10775;42.678;26.324;2023-03-05T08:11:19;19.42;;;8.32;;
21235;SDS011;10775;42.678;26.324;2023-03-05T08:13:44;25.08;;;11.55;;
21235;SDS011;10775;42.678;26.324;2023-03-05T08:16:11;23.30;;;12.13;;
21235;SDS011;10775;42.678;26.324;2023-03-05T08:18:39;36.33;;;15.43;;
21235;SDS011;10775;42.678;26.324;2023-03-05T08:21:05;25.92;;;12.23;;
21235;SDS011;10775;42.678;26.324;2023-03-05T08:23:31;24.25;;;11.18;;
21235;SDS011;10775;42.678;26.324;2023-03-05T08:25:58;33.03;;;15.18;;
21235;SDS011;10775;42.678;26.324;2023-03-05T08:28:24;17.00;;;8.55;;
21235;SDS011;10775;42.678;26.324;2023-03-05T08:30:49;21.15;;;8.80;;
21235;SDS011;10775;42.678;26.324;2023-03-05T08:33:15;25.55;;;10.70;;
21235;SDS011;10775;42.678;26.324;2023-03-05T08:35:44;16.63;;;8.77;;
21235;SDS011;10775;42.678;26.324;2023-03-05T08:38:09;24.75;;;11.77;;
21235;SDS011;10775;42.678;26.324;2023-03-05T08:40:35;17.67;;;8.68;;
21235;SDS011;10775;42.678;26.324;2023-03-05T08:43:01;22.40;;;10.50;;
21235;SDS011;10775;42.678;26.324;2023-03-05T08:45:26;25.75;;;10.77;;
21235;SDS011;10775;42.678;26.324;2023-03-05T08:47:53;28.15;;;13.20;;
21235;SDS011;10775;42.678;26.324;2023-03-05T08:50:20;24.27;;;11.40;;
21235;SDS011;10775;42.678;26.324;2023-03-05T08:52:46;20.50;;;8.95;;
21235;SDS011;10775;42.678;26.324;2023-03-05T08:55:12;25.40;;;11.40;;
21235;SDS011;10775;42.678;26.324;2023-03-05T08:57:37;28.05;;;12.95;;
21235;SDS011;10775;42.678;26.324;2023-03-05T09:00:03;29.20;;;13.73;;
21235;SDS011;10775;42.678;26.324;2023-03-05T09:02:29;29.42;;;13.20;;
21235;SDS011;10775;42.678;26.324;2023-03-05T09:04:55;21.73;;;10.48;;
21235;SDS011;10775;42.678;26.324;2023-03-05T09:07:20;26.85;;;12.18;;
21235;SDS011;10775;42.678;26.324;2023-03-05T09:09:46;25.80;;;10.98;;
21235;SDS011;10775;42.678;26.324;2023-03-05T09:12:11;28.42;;;13.63;;
21235;SDS011;10775;42.678;26.324;2023-03-05T09:14:37;23.15;;;11.10;;
21235;SDS011;10775;42.678;26.324;2023-03-05T09:17:04;20.23;;;9.68;;
21235;SDS011;10775;42.678;26.324;2023-03-05T09:19:29;23.00;;;11.88;;
21235;SDS011;10775;42.678;26.324;2023-03-05T09:21:55;27.20;;;13.40;;
21235;SDS011;10775;42.678;26.324;2023-03-05T09:24:20;26.33;;;11.57;;
21235;SDS011;10775;42.678;26.324;2023-03-05T09:26:46;14.52;;;6.75;;
21235;SDS011;10775;42.678;26.324;2023-03-05T09:29:11;22.48;;;10.88;;
21235;SDS011;10775;42.678;26.324;2023-03-05T09:31:37;20.48;;;9.35;;
21235;SDS011;10775;42.678;26.324;2023-03-05T09:34:03;21.92;;;10.00;;
21235;SDS011;10775;42.678;26.324;2023-03-05T09:36:31;18.05;;;8.85;;
21235;SDS011;10775;42.678;26.324;2023-03-05T09:38:57;21.80;;;11.23;;
21235;SDS011;10775;42.678;26.324;2023-03-05T09:50:43;18.20;;;8.75;;
21235;SDS011;10775;42.678;26.324;2023-03-05T09:56:16;25.83;;;10.48;;
21235;SDS011;10775;42.678;26.324;2023-03-05T09:58:53;23.50;;;10.98;;
21235;SDS011;10775;42.678;26.324;2023-03-05T10:01:23;20.40;;;10.35;;
21235;SDS011;10775;42.678;26.324;2023-03-05T10:12:16;22.48;;;11.00;;
21235;SDS011;10775;42.678;26.324;2023-03-05T10:15:04;24.08;;;10.00;;
21235;SDS011;10775;42.678;26.324;2023-03-05T10:42:46;17.58;;;8.40;;
21235;SDS011;10775;42.678;26.324;2023-03-05T10:45:32;28.73;;;12.25;;
21235;SDS011;10775;42.678;26.324;2023-03-05T10:48:10;11.68;;;6.50;;
21235;SDS011;10775;42.678;26.324;2023-03-05T10:50:45;20.20;;;9.65;;
21235;SDS011;10775;42.678;26.324;2023-03-05T10:53:21;22.27;;;10.48;;
21235;SDS011;10775;42.678;26.324;2023-03-05T10:55:50;22.58;;;11.38;;
21235;SDS011;10775;42.678;26.324;2023-03-05T10:58:20;22.37;;;10.53;;
21235;SDS011;10775;42.678;26.324;2023-03-05T11:03:44;19.58;;;10.05;;
21235;SDS011;10775;42.678;26.324;2023-03-05T11:11:43;25.33;;;11.43;;
21235;SDS011;10775;42.678;26.324;2023-03-05T11:14:26;20.85;;;9.57;;
21235;SDS011;10775;42.678;26.324;2023-03-05T11:16:57;21.90;;;9.95;;
21235;SDS011;10775;42.678;26.324;2023-03-05T11:19:28;18.40;;;9.20;;
21235;SDS011;10775;42.678;26.324;2023-03-05T11:24:35;23.30;;;11.20;;
21235;SDS011;10775;42.678;26.324;2023-03-05T11:27:01;27.35;;;12.50;;
21235;SDS011;10775;42.678;26.324;2023-03-05T11:29:48;26.23;;;11.88;;
21235;SDS011;10775;42.678;26.324;2023-03-05T11:32:22;26.25;;;12.50;;
21235;SDS011;10775;42.678;26.324;2023-03-05T11:34:52;25.73;;;11.88;;
21235;SDS011;10775;42.678;26.324;2023-03-05T11:37:23;28.27;;;12.20;;
21235;SDS011;10775;42.678;26.324;2023-03-05T11:42:34;23.80;;;11.50;;
21235;SDS011;10775;42.678;26.324;2023-03-05T11:45:04;16.05;;;8.15;;
21235;SDS011;10775;42.678;26.324;2023-03-05T11:52:47;14.98;;;8.15;;
21235;SDS011;10775;42.678;26.324;2023-03-05T11:58:00;24.20;;;11.30;;
21235;SDS011;10775;42.678;26.324;2023-03-05T12:00:30;25.63;;;11.80;;
21235;SDS011;10775;42.678;26.324;2023-03-05T12:02:58;30.42;;;11.60;;
21235;SDS011;10775;42.678;26.324;2023-03-05T12:05:28;23.05;;;11.82;;
21235;SDS011;10775;42.678;26.324;2023-03-05T12:07:57;20.48;;;9.60;;
21235;SDS011;10775;42.678;26.324;2023-03-05T12:10:25;18.50;;;8.10;;
21235;SDS011;10775;42.678;26.324;2023-03-05T12:12:56;25.35;;;11.10;;
21235;SDS011;10775;42.678;26.324;2023-03-05T12:15:39;13.57;;;6.82;;
21235;SDS011;10775;42.678;26.324;2023-03-05T12:18:29;20.55;;;9.13;;
21235;SDS011;10775;42.678;26.324;2023-03-05T12:21:00;26.52;;;11.07;;
21235;SDS011;10775;42.678;26.324;2023-03-05T12:23:42;30.67;;;13.63;;
21235;SDS011;10775;42.678;26.324;2023-03-05T12:26:12;26.05;;;12.60;;
21235;SDS011;10775;42.678;26.324;2023-03-05T12:33:50;28.70;;;13.57;;
21235;SDS011;10775;42.678;26.324;2023-03-05T12:46:38;14.82;;;7.60;;
21235;SDS011;10775;42.678;26.324;2023-03-05T12:51:50;30.75;;;13.82;;
21235;SDS011;10775;42.678;26.324;2023-03-05T12:54:32;22.00;;;11.82;;
21235;SDS011;10775;42.678;26.324;2023-03-05T12:57:00;21.13;;;10.43;;
21235;SDS011;10775;42.678;26.324;2023-03-05T12:59:43;23.77;;;10.82;;
21235;SDS011;10775;42.678;26.324;2023-03-05T13:02:30;19.90;;;9.68;;
21235;SDS011;10775;42.678;26.324;2023-03-05T13:05:01;24.00;;;10.63;;
21235;SDS011;10775;42.678;26.324;2023-03-05T13:07:32;23.98;;;11.60;;
21235;SDS011;10775;42.678;26.324;2023-03-05T13:09:58;22.85;;;10.23;;
21235;SDS011;10775;42.678;26.324;2023-03-05T13:12:25;23.63;;;9.93;;
21235;SDS011;10775;42.678;26.324;2023-03-05T13:15:00;11.48;;;6.20;;
21235;SDS011;10775;42.678;26.324;2023-03-05T13:17:39;22.77;;;9.50;;
21235;SDS011;10775;42.678;26.324;2023-03-05T13:23:19;23.63;;;10.75;;
21235;SDS011;10775;42.678;26.324;2023-03-05T13:28:26;23.60;;;9.27;;
21235;SDS011;10775;42.678;26.324;2023-03-05T13:31:02;17.75;;;9.82;;
21235;SDS011;10775;42.678;26.324;2023-03-05T13:33:36;26.33;;;12.60;;
21235;SDS011;10775;42.678;26.324;2023-03-05T13:36:02;15.70;;;8.32;;
21235;SDS011;10775;42.678;26.324;2023-03-05T13:41:27;10.45;;;5.75;;
21235;SDS011;10775;42.678;26.324;2023-03-05T13:43:57;27.90;;;13.55;;
21235;SDS011;10775;42.678;26.324;2023-03-05T13:46:26;26.40;;;12.80;;
21235;SDS011;10775;42.678;26.324;2023-03-05T13:48:51;19.70;;;10.65;;
21235;SDS011;10775;42.678;26.324;2023-03-05T13:51:17;18.95;;;8.70;;
21235;SDS011;10775;42.678;26.324;2023-03-05T13:53:43;14.27;;;7.60;;
21235;SDS011;10775;42.678;26.324;2023-03-05T13:56:16;15.57;;;7.40;;
21235;SDS011;10775;42.678;26.324;2023-03-05T13:58:48;16.70;;;7.80;;
21235;SDS011;10775;42.678;26.324;2023-03-05T14:01:28;12.77;;;5.97;;
21235;SDS011;10775;42.678;26.324;2023-03-05T14:03:57;9.27;;;5.20;;
21235;SDS011;10775;42.678;26.324;2023-03-05T14:06:29;23.10;;;10.63;;
21235;SDS011;10775;42.678;26.324;2023-03-05T14:08:59;17.75;;;9.13;;
21235;SDS011;10775;42.678;26.324;2023-03-05T14:11:27;21.75;;;11.05;;
21235;SDS011;10775;42.678;26.324;2023-03-05T14:14:06;9.18;;;5.13;;
21235;SDS011;10775;42.678;26.324;2023-03-05T14:16:39;11.70;;;6.07;;
21235;SDS011;10775;42.678;26.324;2023-03-05T14:19:04;15.20;;;6.68;;
21235;SDS011;10775;42.678;26.324;2023-03-05T14:21:44;13.35;;;6.30;;
21235;SDS011;10775;42.678;26.324;2023-03-05T14:24:24;13.98;;;6.30;;
21235;SDS011;10775;42.678;26.324;2023-03-05T14:26:55;20.00;;;10.38;;
21235;SDS011;10775;42.678;26.324;2023-03-05T14:29:23;21.90;;;10.65;;
21235;SDS011;10775;42.678;26.324;2023-03-05T14:31:55;12.13;;;5.63;;
21235;SDS011;10775;42.678;26.324;2023-03-05T14:34:46;10.30;;;5.82;;
21235;SDS011;10775;42.678;26.324;2023-03-05T14:37:28;13.32;;;7.15;;
21235;SDS011;10775;42.678;26.324;2023-03-05T14:39:55;12.90;;;6.18;;
21235;SDS011;10775;42.678;26.324;2023-03-05T14:45:14;18.55;;;8.65;;
21235;SDS011;10775;42.678;26.324;2023-03-05T14:47:42;18.00;;;9.20;;
21235;SDS011;10775;42.678;26.324;2023-03-05T14:50:09;13.50;;;7.00;;
21235;SDS011;10775;42.678;26.324;2023-03-05T14:52:46;18.50;;;9.00;;
21235;SDS011;10775;42.678;26.324;2023-03-05T14:55:17;18.55;;;10.18;;
21235;SDS011;10775;42.678;26.324;2023-03-05T14:57:45;11.45;;;6.63;;
21235;SDS011;10775;42.678;26.324;2023-03-05T15:00:19;11.63;;;6.55;;
21235;SDS011;10775;42.678;26.324;2023-03-05T15:02:46;15.70;;;7.97;;
21235;SDS011;10775;42.678;26.324;2023-03-05T15:05:13;19.13;;;10.18;;
21235;SDS011;10775;42.678;26.324;2023-03-05T15:07:39;10.65;;;5.22;;
21235;SDS011;10775;42.678;26.324;2023-03-05T15:10:06;14.23;;;8.07;;
21235;SDS011;10775;42.678;26.324;2023-03-05T15:12:32;12.68;;;7.50;;
21235;SDS011;10775;42.678;26.324;2023-03-05T15:14:58;9.30;;;5.63;;
21235;SDS011;10775;42.678;26.324;2023-03-05T15:17:33;10.35;;;5.93;;
21235;SDS011;10775;42.678;26.324;2023-03-05T15:20:02;20.17;;;9.25;;
21235;SDS011;10775;42.678;26.324;2023-03-05T15:22:34;17.30;;;9.45;;
21235;SDS011;10775;42.678;26.324;2023-03-05T15:25:00;15.52;;;8.80;;
21235;SDS011;10775;42.678;26.324;2023-03-05T15:27:25;12.10;;;6.30;;
21235;SDS011;10775;42.678;26.324;2023-03-05T15:29:51;14.70;;;7.30;;
21235;SDS011;10775;42.678;26.324;2023-03-05T15:32:16;10.60;;;5.90;;
21235;SDS011;10775;42.678;26.324;2023-03-05T15:34:42;13.30;;;7.00;;
21235;SDS011;10775;42.678;26.324;2023-03-05T15:37:07;16.73;;;9.05;;
21235;SDS011;10775;42.678;26.324;2023-03-05T15:39:33;24.52;;;13.05;;
21235;SDS011;10775;42.678;26.324;2023-03-05T15:41:58;17.60;;;9.18;;
21235;SDS011;10775;42.678;26.324;2023-03-05T15:44:24;11.52;;;6.47;;
21235;SDS011;10775;42.678;26.324;2023-03-05T15:46:50;15.27;;;6.95;;
21235;SDS011;10775;42.678;26.324;2023-03-05T15:49:16;13.35;;;7.18;;
21235;SDS011;10775;42.678;26.324;2023-03-05T15:51:42;12.18;;;6.72;;
21235;SDS011;10775;42.678;26.324;2023-03-05T15:54:08;14.43;;;7.97;;
21235;SDS011;10775;42.678;26.324;2023-03-05T15:56:33;22.85;;;11.30;;
21235;SDS011;10775;42.678;26.324;2023-03-05T15:58:59;18.55;;;8.50;;
21235;SDS011;10775;42.678;26.324;2023-03-05T16:01:25;30.40;;;16.88;;
21235;SDS011;10775;42.678;26.324;2023-03-05T16:03:50;41.15;;;22.65;;
21235;SDS011;10775;42.678;26.324;2023-03-05T16:06:16;36.38;;;20.50;;
21235;SDS011;10775;42.678;26.324;2023-03-05T16:08:46;43.50;;;23.10;;
21235;SDS011;10775;42.678;26.324;2023-03-05T16:11:15;36.45;;;19.92;;
21235;SDS011;10775;42.678;26.324;2023-03-05T16:13:41;40.22;;;22.35;;